sensor_id;sensor_type;location;lat;lon;timestamp;P1;durP1;ratioP1;P2;durP2;ratioP2
53034;SDS011;38923;53.236;6.506;2022-09-09T00:06:42;16.08;;;8.90;;
53034;SDS011;38923;53.236;6.506;2022-09-09T00:09:11;13.88;;;9.27;;
53034;SDS011;38923;53.236;6.506;2022-09-09T00:11:43;16.77;;;8.77;;
53034;SDS011;38923;53.236;6.506;2022-09-09T00:17:38;17.38;;;9.70;;
53034;SDS011;38923;53.236;6.506;2022-09-09T00:20:21;15.38;;;9.60;;
53034;SDS011;38923;53.236;6.506;2022-09-09T00:23:50;16.77;;;9.80;;
53034;SDS011;38923;53.236;6.506;2022-09-09T00:28:28;16.48;;;10.48;;
53034;SDS011;38923;53.236;6.506;2022-09-09T00:30:59;15.32;;;10.73;;
53034;SDS011;38923;53.236;6.506;2022-09-09T00:33:36;15.77;;;9.93;;
53034;SDS011;38923;53.236;6.506;2022-09-09T00:36:04;16.23;;;10.75;;
53034;SDS011;38923;53.236;6.506;2022-09-09T00:38:45;16.30;;;10.05;;
53034;SDS011;38923;53.236;6.506;2022-09-09T00:49:35;16.35;;;10.23;;
53034;SDS011;38923;53.236;6.506;2022-09-09T00:52:28;14.38;;;10.07;;
53034;SDS011;38923;53.236;6.506;2022-09-09T00:57:34;12.65;;;10.00;;
53034;SDS011;38923;53.236;6.506;2022-09-09T01:00:17;18.80;;;11.23;;
53034;SDS011;38923;53.236;6.506;2022-09-09T01:03:10;20.17;;;10.73;;
53034;SDS011;38923;53.236;6.506;2022-09-09T01:12:01;17.95;;;9.90;;
53034;SDS011;38923;53.236;6.506;2022-09-09T01:20:26;15.00;;;9.20;;
53034;SDS011;38923;53.236;6.506;2022-09-09T01:28:43;12.35;;;9.55;;
53034;SDS011;38923;53.236;6.506;2022-09-09T01:31:17;13.32;;;8.82;;
53034;SDS011;38923;53.236;6.506;2022-09-09T01:33:46;15.32;;;8.90;;
53034;SDS011;38923;53.236;6.506;2022-09-09T01:38:43;18.60;;;10.38;;
53034;SDS011;38923;53.236;6.506;2022-09-09T01:41:08;14.55;;;10.25;;
53034;SDS011;38923;53.236;6.506;2022-09-09T01:43:34;16.42;;;9.60;;
53034;SDS011;38923;53.236;6.506;2022-09-09T01:46:00;18.17;;;10.15;;
53034;SDS011;38923;53.236;6.506;2022-09-09T01:48:27;14.80;;;9.60;;
53034;SDS011;38923;53.236;6.506;2022-09-09T01:50:54;14.63;;;10.10;;
53034;SDS011;38923;53.236;6.506;2022-09-09T01:53:20;17.65;;;9.88;;
53034;SDS011;38923;53.236;6.506;2022-09-09T01:58:44;16.88;;;9.70;;
53034;SDS011;38923;53.236;6.506;2022-09-09T02:04:54;17.42;;;9.27;;
53034;SDS011;38923;53.236;6.506;2022-09-09T02:09:52;14.40;;;9.07;;
53034;SDS011;38923;53.236;6.506;2022-09-09T02:12:24;17.15;;;7.90;;
53034;SDS011;38923;53.236;6.506;2022-09-09T02:14:55;12.98;;;8.90;;
53034;SDS011;38923;53.236;6.506;2022-09-09T02:17:27;15.35;;;10.02;;
53034;SDS011;38923;53.236;6.506;2022-09-09T02:20:06;16.63;;;9.88;;
53034;SDS011;38923;53.236;6.506;2022-09-09T02:22:35;13.93;;;9.95;;
53034;SDS011;38923;53.236;6.506;2022-09-09T02:25:05;15.05;;;10.00;;
53034;SDS011;38923;53.236;6.506;2022-09-09T02:27:33;16.70;;;9.85;;
53034;SDS011;38923;53.236;6.506;2022-09-09T02:30:00;16.85;;;10.50;;
53034;SDS011;38923;53.236;6.506;2022-09-09T02:32:29;20.80;;;10.45;;
53034;SDS011;38923;53.236;6.506;2022-09-09T02:34:59;13.95;;;9.90;;
53034;SDS011;38923;53.236;6.506;2022-09-09T02:37:35;14.88;;;10.43;;
53034;SDS011;38923;53.236;6.506;2022-09-09T02:40:06;17.70;;;10.87;;
53034;SDS011;38923;53.236;6.506;2022-09-09T02:42:41;16.92;;;10.68;;
53034;SDS011;38923;53.236;6.506;2022-09-09T02:45:09;19.75;;;10.77;;
53034;SDS011;38923;53.236;6.506;2022-09-09T02:50:15;17.33;;;10.55;;
53034;SDS011;38923;53.236;6.506;2022-09-09T02:57:58;23.30;;;12.50;;
53034;SDS011;38923;53.236;6.506;2022-09-09T03:00:26;16.85;;;10.57;;
53034;SDS011;38923;53.236;6.506;2022-09-09T03:02:53;17.95;;;11.00;;
53034;SDS011;38923;53.236;6.506;2022-09-09T03:05:19;18.27;;;11.20;;
53034;SDS011;38923;53.236;6.506;2022-09-09T03:07:46;13.20;;;9.95;;
53034;SDS011;38923;53.236;6.506;2022-09-09T03:10:12;16.92;;;10.45;;
53034;SDS011;38923;53.236;6.506;2022-09-09T03:12:38;17.40;;;10.02;;
53034;SDS011;38923;53.236;6.506;2022-09-09T03:15:04;15.85;;;10.80;;
53034;SDS011;38923;53.236;6.506;2022-09-09T03:17:31;17.40;;;10.60;;
53034;SDS011;38923;53.236;6.506;2022-09-09T03:19:57;15.73;;;10.15;;
53034;SDS011;38923;53.236;6.506;2022-09-09T03:22:24;18.58;;;10.68;;
53034;SDS011;38923;53.236;6.506;2022-09-09T03:24:50;17.70;;;11.27;;
53034;SDS011;38923;53.236;6.506;2022-09-09T03:27:17;16.85;;;11.10;;
53034;SDS011;38923;53.236;6.506;2022-09-09T03:29:44;15.07;;;9.73;;
53034;SDS011;38923;53.236;6.506;2022-09-09T03:32:11;16.48;;;10.75;;
53034;SDS011;38923;53.236;6.506;2022-09-09T03:34:37;17.48;;;10.90;;
53034;SDS011;38923;53.236;6.506;2022-09-09T03:37:05;17.50;;;10.32;;
53034;SDS011;38923;53.236;6.506;2022-09-09T03:39:31;14.20;;;9.60;;
53034;SDS011;38923;53.236;6.506;2022-09-09T03:41:57;14.50;;;9.52;;
53034;SDS011;38923;53.236;6.506;2022-09-09T03:44:23;14.90;;;9.13;;
53034;SDS011;38923;53.236;6.506;2022-09-09T03:46:48;14.35;;;9.30;;
53034;SDS011;38923;53.236;6.506;2022-09-09T03:49:14;13.60;;;8.80;;
53034;SDS011;38923;53.236;6.506;2022-09-09T03:51:40;12.02;;;8.55;;
53034;SDS011;38923;53.236;6.506;2022-09-09T03:54:06;13.63;;;8.70;;
53034;SDS011;38923;53.236;6.506;2022-09-09T03:56:33;17.08;;;8.27;;
53034;SDS011;38923;53.236;6.506;2022-09-09T03:58:59;14.90;;;7.90;;
53034;SDS011;38923;53.236;6.506;2022-09-09T04:01:25;12.55;;;6.97;;
53034;SDS011;38923;53.236;6.506;2022-09-09T04:03:51;12.25;;;7.30;;
53034;SDS011;38923;53.236;6.506;2022-09-09T04:06:17;10.45;;;6.80;;
53034;SDS011;38923;53.236;6.506;2022-09-09T04:08:45;10.23;;;6.57;;
53034;SDS011;38923;53.236;6.506;2022-09-09T04:11:13;16.35;;;6.43;;
53034;SDS011;38923;53.236;6.506;2022-09-09T04:13:40;11.02;;;5.85;;
53034;SDS011;38923;53.236;6.506;2022-09-09T04:16:07;10.68;;;5.90;;
53034;SDS011;38923;53.236;6.506;2022-09-09T04:18:35;10.77;;;5.63;;
53034;SDS011;38923;53.236;6.506;2022-09-09T04:21:01;12.63;;;5.95;;
53034;SDS011;38923;53.236;6.506;2022-09-09T04:23:28;12.98;;;6.35;;
53034;SDS011;38923;53.236;6.506;2022-09-09T04:25:55;11.20;;;5.53;;
53034;SDS011;38923;53.236;6.506;2022-09-09T04:28:22;11.40;;;5.70;;
53034;SDS011;38923;53.236;6.506;2022-09-09T04:30:49;8.02;;;5.20;;
53034;SDS011;38923;53.236;6.506;2022-09-09T04:33:16;10.40;;;4.80;;
53034;SDS011;38923;53.236;6.506;2022-09-09T04:35:45;8.65;;;5.55;;
53034;SDS011;38923;53.236;6.506;2022-09-09T04:38:13;8.23;;;5.10;;
53034;SDS011;38923;53.236;6.506;2022-09-09T04:40:41;10.60;;;4.82;;
53034;SDS011;38923;53.236;6.506;2022-09-09T04:43:08;10.15;;;5.72;;
53034;SDS011;38923;53.236;6.506;2022-09-09T04:45:34;9.75;;;5.18;;
53034;SDS011;38923;53.236;6.506;2022-09-09T04:48:00;11.38;;;5.43;;
53034;SDS011;38923;53.236;6.506;2022-09-09T04:50:27;9.82;;;5.32;;
53034;SDS011;38923;53.236;6.506;2022-09-09T04:52:53;12.60;;;5.50;;
53034;SDS011;38923;53.236;6.506;2022-09-09T04:55:19;12.80;;;6.20;;
53034;SDS011;38923;53.236;6.506;2022-09-09T04:57:45;11.70;;;5.47;;
53034;SDS011;38923;53.236;6.506;2022-09-09T05:00:11;11.15;;;6.15;;
53034;SDS011;38923;53.236;6.506;2022-09-09T05:02:38;12.98;;;6.40;;
53034;SDS011;38923;53.236;6.506;2022-09-09T05:05:05;13.85;;;6.28;;
53034;SDS011;38923;53.236;6.506;2022-09-09T05:07:31;12.30;;;6.47;;
53034;SDS011;38923;53.236;6.506;2022-09-09T05:09:57;8.73;;;5.82;;
53034;SDS011;38923;53.236;6.506;2022-09-09T05:12:23;7.55;;;5.88;;
53034;SDS011;38923;53.236;6.506;2022-09-09T05:14:51;14.80;;;6.82;;
53034;SDS011;38923;53.236;6.506;2022-09-09T05:17:17;11.07;;;6.38;;
53034;SDS011;38923;53.236;6.506;2022-09-09T05:19:43;14.77;;;6.55;;
53034;SDS011;38923;53.236;6.506;2022-09-09T05:22:09;10.20;;;6.68;;
53034;SDS011;38923;53.236;6.506;2022-09-09T05:24:37;11.55;;;6.82;;
53034;SDS011;38923;53.236;6.506;2022-09-09T05:27:03;10.07;;;6.95;;
53034;SDS011;38923;53.236;6.506;2022-09-09T05:29:31;16.88;;;7.20;;
53034;SDS011;38923;53.236;6.506;2022-09-09T05:31:58;11.40;;;7.05;;
53034;SDS011;38923;53.236;6.506;2022-09-09T05:34:24;9.80;;;6.13;;
53034;SDS011;38923;53.236;6.506;2022-09-09T05:36:50;12.73;;;6.72;;
53034;SDS011;38923;53.236;6.506;2022-09-09T05:39:17;11.25;;;7.45;;
53034;SDS011;38923;53.236;6.506;2022-09-09T05:41:43;11.48;;;7.90;;
53034;SDS011;38923;53.236;6.506;2022-09-09T05:44:09;12.40;;;7.55;;
53034;SDS011;38923;53.236;6.506;2022-09-09T05:46:34;13.15;;;7.97;;
53034;SDS011;38923;53.236;6.506;2022-09-09T05:49:01;10.48;;;7.28;;
53034;SDS011;38923;53.236;6.506;2022-09-09T05:51:28;14.45;;;8.10;;
53034;SDS011;38923;53.236;6.506;2022-09-09T05:53:57;13.73;;;8.55;;
53034;SDS011;38923;53.236;6.506;2022-09-09T05:56:27;11.80;;;7.55;;
53034;SDS011;38923;53.236;6.506;2022-09-09T05:58:54;16.85;;;8.82;;
53034;SDS011;38923;53.236;6.506;2022-09-09T06:01:25;18.45;;;9.43;;
53034;SDS011;38923;53.236;6.506;2022-09-09T06:03:52;16.73;;;9.38;;
53034;SDS011;38923;53.236;6.506;2022-09-09T06:06:19;16.77;;;9.63;;
53034;SDS011;38923;53.236;6.506;2022-09-09T06:08:46;15.90;;;8.98;;
53034;SDS011;38923;53.236;6.506;2022-09-09T06:11:17;17.15;;;9.55;;
53034;SDS011;38923;53.236;6.506;2022-09-09T06:13:48;17.23;;;8.95;;
53034;SDS011;38923;53.236;6.506;2022-09-09T06:16:17;15.02;;;9.02;;
53034;SDS011;38923;53.236;6.506;2022-09-09T06:18:44;12.90;;;8.63;;
53034;SDS011;38923;53.236;6.506;2022-09-09T06:21:17;13.15;;;8.43;;
53034;SDS011;38923;53.236;6.506;2022-09-09T06:23:44;15.32;;;9.27;;
53034;SDS011;38923;53.236;6.506;2022-09-09T06:26:11;15.63;;;9.57;;
53034;SDS011;38923;53.236;6.506;2022-09-09T06:28:39;17.17;;;9.63;;
53034;SDS011;38923;53.236;6.506;2022-09-09T06:31:06;16.70;;;10.00;;
53034;SDS011;38923;53.236;6.506;2022-09-09T06:33:34;12.88;;;9.40;;
53034;SDS011;38923;53.236;6.506;2022-09-09T06:36:01;15.07;;;8.23;;
53034;SDS011;38923;53.236;6.506;2022-09-09T06:38:29;17.67;;;9.32;;
53034;SDS011;38923;53.236;6.506;2022-09-09T06:40:55;13.45;;;9.48;;
53034;SDS011;38923;53.236;6.506;2022-09-09T06:43:23;15.50;;;9.98;;
53034;SDS011;38923;53.236;6.506;2022-09-09T06:45:52;14.93;;;9.05;;
53034;SDS011;38923;53.236;6.506;2022-09-09T06:48:26;15.60;;;9.68;;
53034;SDS011;38923;53.236;6.506;2022-09-09T06:53:31;14.73;;;9.27;;
53034;SDS011;38923;53.236;6.506;2022-09-09T06:56:02;14.30;;;9.25;;
53034;SDS011;38923;53.236;6.506;2022-09-09T06:58:48;14.13;;;8.77;;
53034;SDS011;38923;53.236;6.506;2022-09-09T07:01:15;13.07;;;7.95;;
53034;SDS011;38923;53.236;6.506;2022-09-09T07:03:44;12.65;;;8.82;;
53034;SDS011;38923;53.236;6.506;2022-09-09T07:06:17;11.50;;;8.20;;
53034;SDS011;38923;53.236;6.506;2022-09-09T07:08:48;12.70;;;8.32;;
53034;SDS011;38923;53.236;6.506;2022-09-09T07:11:15;13.98;;;9.10;;
53034;SDS011;38923;53.236;6.506;2022-09-09T07:13:41;13.90;;;9.20;;
53034;SDS011;38923;53.236;6.506;2022-09-09T07:16:11;12.82;;;7.43;;
53034;SDS011;38923;53.236;6.506;2022-09-09T07:18:41;14.05;;;9.32;;
53034;SDS011;38923;53.236;6.506;2022-09-09T07:21:07;17.73;;;8.45;;
53034;SDS011;38923;53.236;6.506;2022-09-09T07:23:34;14.50;;;8.88;;
53034;SDS011;38923;53.236;6.506;2022-09-09T07:26:06;15.57;;;9.07;;
53034;SDS011;38923;53.236;6.506;2022-09-09T07:28:38;14.68;;;8.43;;
53034;SDS011;38923;53.236;6.506;2022-09-09T07:31:05;11.57;;;8.30;;
53034;SDS011;38923;53.236;6.506;2022-09-09T07:33:33;13.05;;;8.35;;
53034;SDS011;38923;53.236;6.506;2022-09-09T07:36:05;13.63;;;8.20;;
53034;SDS011;38923;53.236;6.506;2022-09-09T07:38:42;14.13;;;7.93;;
53034;SDS011;38923;53.236;6.506;2022-09-09T07:41:11;14.13;;;8.43;;
53034;SDS011;38923;53.236;6.506;2022-09-09T07:43:39;11.82;;;8.25;;
53034;SDS011;38923;53.236;6.506;2022-09-09T07:46:10;11.85;;;8.20;;
53034;SDS011;38923;53.236;6.506;2022-09-09T07:48:38;14.00;;;8.80;;
53034;SDS011;38923;53.236;6.506;2022-09-09T07:51:14;10.63;;;6.93;;
53034;SDS011;38923;53.236;6.506;2022-09-09T07:53:48;12.15;;;7.65;;
53034;SDS011;38923;53.236;6.506;2022-09-09T07:56:17;9.20;;;7.05;;
53034;SDS011;38923;53.236;6.506;2022-09-09T07:58:50;11.57;;;7.70;;
53034;SDS011;38923;53.236;6.506;2022-09-09T08:01:21;11.55;;;7.15;;
53034;SDS011;38923;53.236;6.506;2022-09-09T08:03:59;13.35;;;8.18;;
53034;SDS011;38923;53.236;6.506;2022-09-09T08:06:27;11.95;;;7.40;;
53034;SDS011;38923;53.236;6.506;2022-09-09T08:08:54;11.40;;;7.07;;
53034;SDS011;38923;53.236;6.506;2022-09-09T08:11:21;11.25;;;6.57;;
53034;SDS011;38923;53.236;6.506;2022-09-09T08:13:48;11.48;;;7.75;;
53034;SDS011;38923;53.236;6.506;2022-09-09T08:16:16;13.35;;;7.35;;
53034;SDS011;38923;53.236;6.506;2022-09-09T08:18:43;10.48;;;6.45;;
53034;SDS011;38923;53.236;6.506;2022-09-09T08:21:13;14.05;;;7.32;;
53034;SDS011;38923;53.236;6.506;2022-09-09T08:23:42;9.38;;;6.95;;
53034;SDS011;38923;53.236;6.506;2022-09-09T08:28:40;12.43;;;6.63;;
53034;SDS011;38923;53.236;6.506;2022-09-09T08:31:08;11.50;;;6.00;;
53034;SDS011;38923;53.236;6.506;2022-09-09T08:33:36;10.00;;;6.55;;
53034;SDS011;38923;53.236;6.506;2022-09-09T08:36:03;14.75;;;7.68;;
53034;SDS011;38923;53.236;6.506;2022-09-09T08:38:31;9.77;;;6.75;;
53034;SDS011;38923;53.236;6.506;2022-09-09T08:40:58;12.77;;;6.63;;
53034;SDS011;38923;53.236;6.506;2022-09-09T08:43:37;10.00;;;6.07;;
53034;SDS011;38923;53.236;6.506;2022-09-09T08:46:24;11.63;;;6.07;;
53034;SDS011;38923;53.236;6.506;2022-09-09T08:51:46;8.63;;;5.45;;
53034;SDS011;38923;53.236;6.506;2022-09-09T08:54:14;11.98;;;5.97;;
53034;SDS011;38923;53.236;6.506;2022-09-09T08:56:40;11.80;;;6.03;;
53034;SDS011;38923;53.236;6.506;2022-09-09T08:59:07;11.20;;;6.15;;
53034;SDS011;38923;53.236;6.506;2022-09-09T09:12:25;12.90;;;5.88;;
53034;SDS011;38923;53.236;6.506;2022-09-09T09:14:54;9.27;;;6.30;;
53034;SDS011;38923;53.236;6.506;2022-09-09T09:17:23;11.57;;;5.82;;
53034;SDS011;38923;53.236;6.506;2022-09-09T09:19:52;11.48;;;5.85;;
53034;SDS011;38923;53.236;6.506;2022-09-09T09:22:22;12.07;;;5.78;;
53034;SDS011;38923;53.236;6.506;2022-09-09T09:27:49;12.85;;;5.75;;
53034;SDS011;38923;53.236;6.506;2022-09-09T09:31:04;9.63;;;5.40;;
53034;SDS011;38923;53.236;6.506;2022-09-09T09:36:06;11.05;;;5.28;;
53034;SDS011;38923;53.236;6.506;2022-09-09T09:38:35;12.30;;;5.47;;
53034;SDS011;38923;53.236;6.506;2022-09-09T09:41:02;12.82;;;5.57;;
53034;SDS011;38923;53.236;6.506;2022-09-09T09:43:29;15.00;;;4.80;;
53034;SDS011;38923;53.236;6.506;2022-09-09T09:45:56;11.60;;;5.63;;
53034;SDS011;38923;53.236;6.506;2022-09-09T09:48:22;10.32;;;4.68;;
53034;SDS011;38923;53.236;6.506;2022-09-09T09:50:50;11.25;;;5.00;;
53034;SDS011;38923;53.236;6.506;2022-09-09T09:56:01;12.80;;;3.85;;
53034;SDS011;38923;53.236;6.506;2022-09-09T09:58:27;13.68;;;3.80;;
53034;SDS011;38923;53.236;6.506;2022-09-09T10:00:58;10.05;;;3.33;;
53034;SDS011;38923;53.236;6.506;2022-09-09T10:05:55;11.50;;;3.03;;
53034;SDS011;38923;53.236;6.506;2022-09-09T10:08:22;8.43;;;3.47;;
53034;SDS011;38923;53.236;6.506;2022-09-09T10:22:15;10.75;;;3.00;;
53034;SDS011;38923;53.236;6.506;2022-09-09T10:41:18;13.50;;;3.00;;
53034;SDS011;38923;53.236;6.506;2022-09-09T10:43:56;12.05;;;2.25;;
53034;SDS011;38923;53.236;6.506;2022-09-09T10:57:47;7.95;;;1.50;;
53034;SDS011;38923;53.236;6.506;2022-09-09T11:00:22;5.32;;;1.15;;
53034;SDS011;38923;53.236;6.506;2022-09-09T11:03:02;4.22;;;1.10;;
53034;SDS011;38923;53.236;6.506;2022-09-09T11:05:30;5.15;;;1.30;;
53034;SDS011;38923;53.236;6.506;2022-09-09T11:07:58;7.68;;;1.58;;
53034;SDS011;38923;53.236;6.506;2022-09-09T11:10:42;7.20;;;1.95;;
53034;SDS011;38923;53.236;6.506;2022-09-09T11:13:29;7.43;;;1.70;;
53034;SDS011;38923;53.236;6.506;2022-09-09T11:24:55;8.75;;;1.88;;
53034;SDS011;38923;53.236;6.506;2022-09-09T11:38:19;5.80;;;1.30;;
53034;SDS011;38923;53.236;6.506;2022-09-09T11:41:05;8.15;;;1.65;;
53034;SDS011;38923;53.236;6.506;2022-09-09T11:43:34;5.38;;;1.52;;
53034;SDS011;38923;53.236;6.506;2022-09-09T11:46:06;8.65;;;1.83;;
53034;SDS011;38923;53.236;6.506;2022-09-09T11:48:43;7.07;;;1.60;;
53034;SDS011;38923;53.236;6.506;2022-09-09T11:53:53;7.75;;;1.60;;
53034;SDS011;38923;53.236;6.506;2022-09-09T11:56:34;6.68;;;1.33;;
53034;SDS011;38923;53.236;6.506;2022-09-09T12:01:58;10.35;;;1.50;;
53034;SDS011;38923;53.236;6.506;2022-09-09T12:04:32;8.98;;;1.60;;
53034;SDS011;38923;53.236;6.506;2022-09-09T12:07:21;9.13;;;1.70;;
53034;SDS011;38923;53.236;6.506;2022-09-09T12:09:59;6.80;;;1.40;;
53034;SDS011;38923;53.236;6.506;2022-09-09T12:12:37;6.40;;;1.63;;
53034;SDS011;38923;53.236;6.506;2022-09-09T12:17:31;7.68;;;1.60;;
53034;SDS011;38923;53.236;6.506;2022-09-09T12:20:18;6.05;;;1.73;;
53034;SDS011;38923;53.236;6.506;2022-09-09T12:28:02;7.15;;;1.50;;
53034;SDS011;38923;53.236;6.506;2022-09-09T12:33:35;12.13;;;1.70;;
53034;SDS011;38923;53.236;6.506;2022-09-09T12:36:04;8.93;;;1.42;;
53034;SDS011;38923;53.236;6.506;2022-09-09T12:38:39;5.70;;;1.67;;
53034;SDS011;38923;53.236;6.506;2022-09-09T12:41:06;5.40;;;1.65;;
53034;SDS011;38923;53.236;6.506;2022-09-09T12:43:44;6.60;;;1.20;;
53034;SDS011;38923;53.236;6.506;2022-09-09T12:46:12;6.85;;;1.40;;
53034;SDS011;38923;53.236;6.506;2022-09-09T12:49:01;5.90;;;1.23;;
53034;SDS011;38923;53.236;6.506;2022-09-09T12:51:28;7.32;;;1.50;;
53034;SDS011;38923;53.236;6.506;2022-09-09T12:53:58;6.22;;;1.40;;
53034;SDS011;38923;53.236;6.506;2022-09-09T12:56:26;7.70;;;1.27;;
53034;SDS011;38923;53.236;6.506;2022-09-09T12:58:55;4.57;;;1.30;;
53034;SDS011;38923;53.236;6.506;2022-09-09T13:01:23;7.50;;;1.20;;
53034;SDS011;38923;53.236;6.506;2022-09-09T13:03:58;4.80;;;1.30;;
53034;SDS011;38923;53.236;6.506;2022-09-09T13:06:25;8.88;;;1.10;;
53034;SDS011;38923;53.236;6.506;2022-09-09T13:08:53;5.22;;;1.00;;
53034;SDS011;38923;53.236;6.506;2022-09-09T13:14:27;3.72;;;1.35;;
53034;SDS011;38923;53.236;6.506;2022-09-09T13:17:01;6.78;;;1.20;;
53034;SDS011;38923;53.236;6.506;2022-09-09T13:19:32;5.22;;;1.20;;
53034;SDS011;38923;53.236;6.506;2022-09-09T13:22:16;5.40;;;1.27;;
53034;SDS011;38923;53.236;6.506;2022-09-09T13:27:40;5.53;;;1.38;;
53034;SDS011;38923;53.236;6.506;2022-09-09T13:33:39;5.95;;;1.27;;
53034;SDS011;38923;53.236;6.506;2022-09-09T13:35:53;6.95;;;1.45;;
53034;SDS011;38923;53.236;6.506;2022-09-09T13:38:21;5.85;;;1.58;;
53034;SDS011;38923;53.236;6.506;2022-09-09T13:40:57;4.68;;;1.23;;
53034;SDS011;38923;53.236;6.506;2022-09-09T13:43:26;8.77;;;1.75;;
53034;SDS011;38923;53.236;6.506;2022-09-09T13:45:57;5.75;;;1.70;;
53034;SDS011;38923;53.236;6.506;2022-09-09T13:48:27;3.88;;;1.20;;
53034;SDS011;38923;53.236;6.506;2022-09-09T13:51:02;5.22;;;1.23;;
53034;SDS011;38923;53.236;6.506;2022-09-09T13:53:30;4.65;;;1.10;;
53034;SDS011;38923;53.236;6.506;2022-09-09T13:55:56;5.47;;;1.13;;
53034;SDS011;38923;53.236;6.506;2022-09-09T13:58:23;9.73;;;2.00;;
53034;SDS011;38923;53.236;6.506;2022-09-09T14:00:50;9.95;;;1.30;;
53034;SDS011;38923;53.236;6.506;2022-09-09T14:03:20;6.07;;;1.58;;
53034;SDS011;38923;53.236;6.506;2022-09-09T14:05:52;8.07;;;1.85;;
53034;SDS011;38923;53.236;6.506;2022-09-09T14:08:23;5.43;;;1.15;;
53034;SDS011;38923;53.236;6.506;2022-09-09T14:10:51;6.70;;;1.27;;
53034;SDS011;38923;53.236;6.506;2022-09-09T14:13:17;5.78;;;1.00;;
53034;SDS011;38923;53.236;6.506;2022-09-09T14:15:43;5.65;;;1.10;;
53034;SDS011;38923;53.236;6.506;2022-09-09T14:18:11;4.78;;;1.08;;
53034;SDS011;38923;53.236;6.506;2022-09-09T14:23:13;4.70;;;0.88;;
53034;SDS011;38923;53.236;6.506;2022-09-09T14:25:41;4.00;;;1.08;;
53034;SDS011;38923;53.236;6.506;2022-09-09T14:28:11;5.00;;;1.38;;
53034;SDS011;38923;53.236;6.506;2022-09-09T14:30:39;7.25;;;1.30;;
53034;SDS011;38923;53.236;6.506;2022-09-09T14:33:06;5.00;;;1.02;;
53034;SDS011;38923;53.236;6.506;2022-09-09T14:35:33;4.15;;;0.90;;
53034;SDS011;38923;53.236;6.506;2022-09-09T14:37:59;6.03;;;1.20;;
53034;SDS011;38923;53.236;6.506;2022-09-09T14:40:26;9.43;;;0.90;;
53034;SDS011;38923;53.236;6.506;2022-09-09T14:42:52;6.25;;;1.13;;
53034;SDS011;38923;53.236;6.506;2022-09-09T14:45:18;5.63;;;0.90;;
53034;SDS011;38923;53.236;6.506;2022-09-09T14:47:44;4.03;;;0.90;;
53034;SDS011;38923;53.236;6.506;2022-09-09T14:50:10;6.47;;;1.20;;
53034;SDS011;38923;53.236;6.506;2022-09-09T14:52:37;8.02;;;1.15;;
53034;SDS011;38923;53.236;6.506;2022-09-09T14:55:03;6.00;;;2.08;;
53034;SDS011;38923;53.236;6.506;2022-09-09T14:57:30;7.70;;;1.77;;
53034;SDS011;38923;53.236;6.506;2022-09-09T14:59:56;4.78;;;1.15;;
53034;SDS011;38923;53.236;6.506;2022-09-09T15:02:21;2.70;;;0.88;;
53034;SDS011;38923;53.236;6.506;2022-09-09T15:04:48;5.50;;;0.80;;
53034;SDS011;38923;53.236;6.506;2022-09-09T15:07:15;6.43;;;1.23;;
53034;SDS011;38923;53.236;6.506;2022-09-09T15:09:44;3.03;;;0.65;;
53034;SDS011;38923;53.236;6.506;2022-09-09T15:12:10;3.20;;;0.70;;
53034;SDS011;38923;53.236;6.506;2022-09-09T15:14:36;2.28;;;0.65;;
53034;SDS011;38923;53.236;6.506;2022-09-09T15:17:03;1.60;;;0.50;;
53034;SDS011;38923;53.236;6.506;2022-09-09T15:19:29;1.88;;;0.40;;
53034;SDS011;38923;53.236;6.506;2022-09-09T15:21:54;2.38;;;0.40;;
53034;SDS011;38923;53.236;6.506;2022-09-09T15:24:20;2.15;;;0.65;;
53034;SDS011;38923;53.236;6.506;2022-09-09T15:26:46;3.88;;;0.85;;
53034;SDS011;38923;53.236;6.506;2022-09-09T15:29:12;2.80;;;0.65;;
53034;SDS011;38923;53.236;6.506;2022-09-09T15:31:38;2.25;;;0.60;;
53034;SDS011;38923;53.236;6.506;2022-09-09T15:34:04;2.25;;;0.68;;
53034;SDS011;38923;53.236;6.506;2022-09-09T15:36:35;3.55;;;0.77;;
53034;SDS011;38923;53.236;6.506;2022-09-09T15:39:04;3.92;;;0.60;;
53034;SDS011;38923;53.236;6.506;2022-09-09T15:41:33;3.42;;;0.70;;
53034;SDS011;38923;53.236;6.506;2022-09-09T15:43:59;5.13;;;0.90;;
53034;SDS011;38923;53.236;6.506;2022-09-09T15:46:35;3.30;;;0.70;;
53034;SDS011;38923;53.236;6.506;2022-09-09T15:49:05;4.18;;;0.98;;
53034;SDS011;38923;53.236;6.506;2022-09-09T15:51:38;3.50;;;0.93;;
53034;SDS011;38923;53.236;6.506;2022-09-09T15:54:06;3.35;;;0.90;;
53034;SDS011;38923;53.236;6.506;2022-09-09T15:56:32;4.28;;;1.17;;
53034;SDS011;38923;53.236;6.506;2022-09-09T15:58:58;3.60;;;0.88;;
53034;SDS011;38923;53.236;6.506;2022-09-09T16:01:25;4.03;;;0.70;;
53034;SDS011;38923;53.236;6.506;2022-09-09T16:03:52;3.05;;;0.77;;
53034;SDS011;38923;53.236;6.506;2022-09-09T16:06:19;3.15;;;0.73;;
53034;SDS011;38923;53.236;6.506;2022-09-09T16:08:46;4.65;;;1.10;;
53034;SDS011;38923;53.236;6.506;2022-09-09T16:11:27;2.20;;;0.80;;
53034;SDS011;38923;53.236;6.506;2022-09-09T16:13:57;7.47;;;1.20;;
53034;SDS011;38923;53.236;6.506;2022-09-09T16:16:26;7.25;;;1.20;;
53034;SDS011;38923;53.236;6.506;2022-09-09T16:18:54;6.10;;;1.08;;
53034;SDS011;38923;53.236;6.506;2022-09-09T16:21:22;8.13;;;1.15;;
53034;SDS011;38923;53.236;6.506;2022-09-09T16:31:23;5.22;;;1.13;;
53034;SDS011;38923;53.236;6.506;2022-09-09T16:33:49;5.22;;;1.33;;
53034;SDS011;38923;53.236;6.506;2022-09-09T16:36:23;2.83;;;0.77;;
53034;SDS011;38923;53.236;6.506;2022-09-09T16:38:55;2.67;;;0.90;;
53034;SDS011;38923;53.236;6.506;2022-09-09T16:41:25;4.18;;;0.85;;
53034;SDS011;38923;53.236;6.506;2022-09-09T16:43:56;3.22;;;0.88;;
53034;SDS011;38923;53.236;6.506;2022-09-09T16:46:24;3.97;;;0.90;;
53034;SDS011;38923;53.236;6.506;2022-09-09T16:48:52;5.75;;;1.20;;
53034;SDS011;38923;53.236;6.506;2022-09-09T16:51:23;1.77;;;0.90;;
53034;SDS011;38923;53.236;6.506;2022-09-09T16:53:51;4.40;;;0.98;;
53034;SDS011;38923;53.236;6.506;2022-09-09T16:56:19;4.38;;;1.10;;
53034;SDS011;38923;53.236;6.506;2022-09-09T16:58:50;3.15;;;1.15;;
53034;SDS011;38923;53.236;6.506;2022-09-09T17:01:19;4.60;;;0.70;;
53034;SDS011;38923;53.236;6.506;2022-09-09T17:03:44;1.67;;;0.75;;
53034;SDS011;38923;53.236;6.506;2022-09-09T17:10:16;6.28;;;0.98;;
53034;SDS011;38923;53.236;6.506;2022-09-09T17:12:42;2.63;;;0.88;;
53034;SDS011;38923;53.236;6.506;2022-09-09T17:15:07;3.63;;;1.00;;
53034;SDS011;38923;53.236;6.506;2022-09-09T17:17:34;3.35;;;1.02;;
53034;SDS011;38923;53.236;6.506;2022-09-09T17:20:00;5.93;;;1.45;;
53034;SDS011;38923;53.236;6.506;2022-09-09T17:22:27;4.30;;;0.90;;
53034;SDS011;38923;53.236;6.506;2022-09-09T17:24:53;3.60;;;0.90;;
53034;SDS011;38923;53.236;6.506;2022-09-09T17:27:20;3.13;;;1.30;;
53034;SDS011;38923;53.236;6.506;2022-09-09T17:29:47;5.93;;;1.30;;
53034;SDS011;38923;53.236;6.506;2022-09-09T17:32:13;6.63;;;1.30;;
53034;SDS011;38923;53.236;6.506;2022-09-09T17:34:38;4.78;;;1.30;;
53034;SDS011;38923;53.236;6.506;2022-09-09T17:37:04;6.35;;;1.48;;
53034;SDS011;38923;53.236;6.506;2022-09-09T17:39:31;1.90;;;0.90;;
53034;SDS011;38923;53.236;6.506;2022-09-09T17:41:57;4.30;;;1.10;;
53034;SDS011;38923;53.236;6.506;2022-09-09T17:44:23;2.90;;;1.23;;
53034;SDS011;38923;53.236;6.506;2022-09-09T17:46:49;3.70;;;1.17;;
53034;SDS011;38923;53.236;6.506;2022-09-09T17:49:15;3.83;;;1.08;;
53034;SDS011;38923;53.236;6.506;2022-09-09T17:51:42;3.35;;;1.17;;
53034;SDS011;38923;53.236;6.506;2022-09-09T17:54:14;7.13;;;1.50;;
53034;SDS011;38923;53.236;6.506;2022-09-09T17:56:42;4.77;;;1.30;;
53034;SDS011;38923;53.236;6.506;2022-09-09T17:59:10;3.20;;;1.15;;